Phillips, WI

6:13 PM CST on December 17, 2014 (GMT -0600)
Price County | Change Station
CLOSE
Current Station
Airport
Location: Phillips,
Elevation: 1496 ft
Nearby Weather Stations

Elev 1496 ft 45.71 °N, 90.41 °W | Updated 18 minutes ago

Overcast
Overcast
18 °F
Feels Like 10 °F
N
6
Wind Variable Wind from NW

Today
High -- | Low -- °F
--% Chance of Precip.
Yesterday
High -- | Low -- °F
Precip. -- in
7:37 AM 4:18 PM
Waning Crescent, 19% visible
Pressure 30.22 in
Visibility 10.0 miles
Clouds Overcast 1600 ft
Windchill 10 °F
Dew Point 15 °F
Humidity 85%
Rainfall 0.00 in
Snow Depth Not available.
UV 0 out of 12
Pollen .10 out of 12
Air Quality Not available.
Flu Activity Not available.
METAR KPBH 172355Z AUTO 32005KT 10SM OVC016 M07/M10 A3022 RMK AO2 T10751096 11071 21082

More Conditions Fewer Conditions

Pressure 30.22 in
Visibility 10.0 miles
Clouds Overcast 1600 ft
Windchill 10 °F
Dew Point 15 °F
Humidity 85%
Rainfall 0.00 in
Snow Depth Not available.
UV 0 out of 12
Pollen .10 out of 12
Air Quality Not available.
Flu Activity Not available.
METAR KPBH 172355Z AUTO 32005KT 10SM OVC016 M07/M10 A3022 RMK AO2 T10751096 11071 21082

More Conditions Fewer Conditions

10-Day Weather Forecast

Almanac

Astronomy

Dec. 17, 2014 Rise Set
Actual Time
Civil Twilight
Nautical Twilight
Astronomical Twilight
Moon
Length of Visible Light
Length of Day
Tomorrow will be .
, % of the Moon is Illuminated

Today's Extremes

State Highs State Lows

Community

WunderPhotos

Upload Photos

1,778,834 photos uploaded!

WunderBlogs® & News

Nearby

Air Quality

  Air Quality AQ Index Pollutant
Not available.

Snow Depth

Station Depth Elevation

Earthquake Activity

City Distance Mag. Time & Date
Minimum magnitude displayed is 2.5.

Coastal Water Temperatures

Place Temperature

Nearby Weather Stations